Terminal Aerodrome Forecast
Issued by NWS Charleston, WV

Current Version | Previous Version | Graphics & Text | Print | Product List | Glossary On
Versions: 1 2 3 4 5 6 7 8 9 10 11 12 13 14 15 16 17 18 19 20 21 22 23 24 25 26 27 28 29 30
000
FTUS41 KRLX 192332
TAFPKB
TAF
KPKB 192332Z 2000/2024 29014G18KT P6SM BKN035 BKN040 OVC050
     FM200300 27009G16KT P6SM BKN025
     FM200500 27008G14KT P6SM SCT025
     FM200900 24006KT P6SM FEW250=

USA.gov is the U.S. government's official web portal to all federal, state and local government web resources and services.